createdAt,value
2018-12-08T00:00:48.090Z,930.95
2018-12-08T00:01:48.488Z,930.97
2018-12-08T00:02:49.262Z,931.1
2018-12-08T00:03:49.943Z,931.09
2018-12-08T00:04:50.894Z,931.12
2018-12-08T00:05:51.292Z,931.3
2018-12-08T00:06:52.415Z,931.24
2018-12-08T00:07:53.091Z,931.31
2018-12-08T00:08:54.213Z,931.45
2018-12-08T00:09:54.570Z,931.48
2018-12-08T00:10:54.969Z,931.46
2018-12-08T00:11:56.093Z,931.57
2018-12-08T00:12:57.048Z,931.8
2018-12-08T00:13:58.166Z,931.77
2018-12-08T00:14:58.567Z,931.84
2018-12-08T00:15:58.968Z,931.93
2018-12-08T00:16:59.370Z,931.98
2018-12-08T00:18:00.046Z,931.69
2018-12-08T00:19:00.457Z,932.03
2018-12-08T00:20:01.275Z,932.06
2018-12-08T00:21:01.674Z,932.25
2018-12-08T00:22:02.073Z,932.48
2018-12-08T00:23:02.860Z,932.28
2018-12-08T00:24:03.257Z,932.24
2018-12-08T00:25:03.961Z,932.5
2018-12-08T00:26:04.359Z,932.48
2018-12-08T00:27:05.047Z,932.54
2018-12-08T00:28:05.998Z,932.52
2018-12-08T00:29:07.398Z,932.5
2018-12-08T00:30:07.942Z,932.59
2018-12-08T00:31:08.620Z,932.58
2018-12-08T00:32:09.295Z,932.6
2018-12-08T00:33:09.971Z,932.76
2018-12-08T00:34:10.370Z,932.79
2018-12-08T00:35:11.772Z,932.79
2018-12-08T00:36:12.449Z,932.79
2018-12-08T00:37:13.622Z,932.81
2018-12-08T00:38:14.295Z,932.83
2018-12-08T00:39:14.784Z,932.92
2018-12-08T00:40:15.612Z,932.9
2018-12-08T00:41:16.005Z,933.03
2018-12-08T00:42:16.682Z,933.02
2018-12-08T00:43:17.079Z,933.07
2018-12-08T00:44:18.029Z,933.17
2018-12-08T00:45:18.711Z,933.2
2018-12-08T00:46:19.389Z,933.08
2018-12-08T00:47:20.066Z,933.26
2018-12-08T00:48:21.184Z,933.25
2018-12-08T00:49:21.862Z,933.28
2018-12-08T00:50:22.959Z,933.21
2018-12-08T00:51:23.358Z,933.18
2018-12-08T00:52:23.756Z,933.27
2018-12-08T00:53:24.157Z,933.33
2018-12-08T00:54:24.553Z,933.41
2018-12-08T00:55:24.818Z,933.49
2018-12-08T00:56:25.216Z,933.41
2018-12-08T00:57:25.617Z,933.35
2018-12-08T00:58:26.573Z,933.51
2018-12-08T00:59:27.252Z,933.5
2018-12-08T01:00:28.347Z,933.37
2018-12-08T01:01:29.303Z,933.48
2018-12-08T01:02:29.706Z,933.49
2018-12-08T01:03:30.384Z,933.33
2018-12-08T01:04:31.700Z,933.47
2018-12-08T01:05:32.550Z,933.5
2018-12-08T01:06:32.950Z,933.46
2018-12-08T01:07:33.628Z,933.46
2018-12-08T01:08:34.306Z,933.59
2018-12-08T01:09:34.983Z,933.65
2018-12-08T01:10:35.164Z,933.77
2018-12-08T01:11:35.568Z,933.59
2018-12-08T01:12:35.974Z,933.46
2018-12-08T01:13:37.095Z,933.69
2018-12-08T01:14:38.215Z,933.55
2018-12-08T01:15:39.336Z,933.44
2018-12-08T01:16:40.055Z,933.35
2018-12-08T01:17:41.172Z,933.48
2018-12-08T01:18:42.292Z,933.47
2018-12-08T01:19:42.967Z,933.44
2018-12-08T01:20:43.570Z,933.61
2018-12-08T01:21:43.968Z,933.65
2018-12-08T01:22:44.365Z,933.63
2018-12-08T01:23:45.486Z,933.73
2018-12-08T01:24:46.609Z,933.7
2018-12-08T01:25:47.596Z,933.7
2018-12-08T01:26:48.011Z,933.67
2018-12-08T01:27:49.149Z,933.59
2018-12-08T01:28:50.278Z,933.69
2018-12-08T01:29:50.694Z,933.67
2018-12-08T01:30:51.790Z,933.76
2018-12-08T01:31:52.198Z,933.72
2018-12-08T01:32:55.124Z,933.71
2018-12-08T01:33:55.535Z,933.63
2018-12-08T01:34:56.220Z,933.79
2018-12-08T01:35:56.630Z,933.7
2018-12-08T01:36:57.926Z,933.7
2018-12-08T01:37:59.162Z,933.92
2018-12-08T01:39:00.168Z,934.03
2018-12-08T01:40:00.965Z,934.2
2018-12-08T01:41:02.367Z,934
2018-12-08T01:42:02.574Z,934.1
2018-12-08T01:43:02.979Z,934.13
2018-12-08T01:44:03.942Z,934.08
2018-12-08T01:45:05.070Z,934.2
2018-12-08T01:46:06.202Z,934.22
2018-12-08T01:47:06.608Z,934.12
2018-12-08T01:48:07.740Z,934.13
2018-12-08T01:49:08.143Z,934.18
2018-12-08T01:50:08.548Z,934.16
2018-12-08T01:51:09.398Z,934.17
2018-12-08T01:52:10.086Z,934.25
2018-12-08T01:53:10.768Z,934.28
2018-12-08T01:54:11.285Z,934.19
2018-12-08T01:55:11.529Z,934.33
2018-12-08T01:56:12.492Z,934.2
2018-12-08T01:57:13.181Z,934.29
2018-12-08T01:58:13.871Z,934.3
2018-12-08T01:59:14.282Z,934.29
2018-12-08T02:00:15.341Z,934.3
2018-12-08T02:01:15.818Z,934.34
2018-12-08T02:02:16.970Z,934.28
2018-12-08T02:03:17.954Z,934.39
2018-12-08T02:04:19.181Z,934.43
2018-12-08T02:05:19.868Z,934.36
2018-12-08T02:06:21.001Z,934.42
2018-12-08T02:07:21.406Z,934.42
2018-12-08T02:08:21.816Z,934.35
2018-12-08T02:09:22.227Z,934.31
2018-12-08T02:10:22.634Z,934.37
2018-12-08T02:11:25.673Z,934.26
2018-12-08T02:12:26.491Z,934.19
2018-12-08T02:13:26.898Z,934.17
2018-12-08T02:14:27.416Z,934.2
2018-12-08T02:15:28.375Z,934.17
2018-12-08T02:16:29.137Z,934.23
2018-12-08T02:17:30.105Z,934.06
2018-12-08T02:18:30.617Z,934.19
2018-12-08T02:19:31.025Z,934.21
2018-12-08T02:20:31.708Z,934.25
2018-12-08T02:21:31.967Z,934.32
2018-12-08T02:22:33.207Z,934.43
2018-12-08T02:23:33.892Z,934.38
2018-12-08T02:24:35.023Z,934.35
2018-12-08T02:25:35.430Z,934.34
2018-12-08T02:26:35.841Z,934.29
2018-12-08T02:27:36.530Z,934.29
2018-12-08T02:28:37.054Z,934.26
2018-12-08T02:29:37.752Z,934.28
2018-12-08T02:30:38.805Z,934.21
2018-12-08T02:31:39.297Z,934.29
2018-12-08T02:32:40.551Z,934.32
2018-12-08T02:33:41.241Z,934.27
2018-12-08T02:34:42.208Z,934.26
2018-12-08T02:35:42.460Z,934.21
2018-12-08T02:36:43.455Z,934.22
2018-12-08T02:37:44.278Z,934.23
2018-12-08T02:38:45.411Z,934.23
2018-12-08T02:39:45.653Z,934.21
2018-12-08T02:40:46.336Z,934.18
2018-12-08T02:41:47.253Z,934.28
2018-12-08T02:42:47.770Z,934.2
2018-12-08T02:43:48.459Z,934.18
2018-12-08T02:44:49.265Z,934.16
2018-12-08T02:45:50.406Z,934.17
2018-12-08T02:46:50.818Z,934.14
2018-12-08T02:47:51.506Z,934.18
2018-12-08T02:48:51.775Z,934.13
2018-12-08T02:49:53.009Z,934.02
2018-12-08T02:50:53.722Z,934.01
2018-12-08T02:51:54.824Z,933.99
2018-12-08T02:52:55.597Z,934.05
2018-12-08T02:53:56.563Z,934.06
2018-12-08T02:54:57.445Z,934.08
2018-12-08T02:55:58.853Z,934.02
2018-12-08T02:56:59.372Z,934.01
2018-12-08T02:57:59.946Z,933.96
2018-12-08T02:59:01.086Z,933.98
2018-12-08T03:00:01.344Z,933.97
2018-12-08T03:01:02.360Z,933.93
2018-12-08T03:02:03.487Z,933.91
2018-12-08T03:03:04.183Z,933.88
2018-12-08T03:04:05.431Z,933.93
2018-12-08T03:05:05.960Z,933.97
2018-12-08T03:06:06.207Z,933.9
2018-12-08T03:07:06.451Z,933.99
2018-12-08T03:08:07.136Z,933.98
2018-12-08T03:09:07.640Z,933.94
2018-12-08T03:10:08.648Z,934.05
2018-12-08T03:11:08.898Z,934.06
2018-12-08T03:12:09.707Z,934.05
2018-12-08T03:13:10.401Z,934.06
2018-12-08T03:14:11.211Z,934.06
2018-12-08T03:15:11.614Z,934.03
2018-12-08T03:16:12.856Z,934.18
2018-12-08T03:17:13.920Z,934.13
2018-12-08T03:18:14.898Z,934.25
2018-12-08T03:19:15.145Z,934.24
2018-12-08T03:20:16.104Z,934.28
2018-12-08T03:21:17.364Z,934.23
2018-12-08T03:22:17.744Z,934.27
2018-12-08T03:23:18.769Z,934.3
2018-12-08T03:24:19.518Z,934.32
2018-12-08T03:25:20.202Z,934.33
2018-12-08T03:26:20.888Z,934.42
2018-12-08T03:27:21.875Z,934.51
2018-12-08T03:28:22.398Z,934.56
2018-12-08T03:29:23.199Z,934.6
2018-12-08T03:30:24.280Z,934.64
2018-12-08T03:31:25.134Z,934.63
2018-12-08T03:32:25.998Z,934.66
2018-12-08T03:33:26.400Z,934.78
2018-12-08T03:34:26.809Z,934.72
2018-12-08T03:35:27.524Z,934.79
2018-12-08T03:36:28.492Z,934.85
2018-12-08T03:37:29.625Z,934.84
2018-12-08T03:38:30.593Z,934.79
2018-12-08T03:39:31.005Z,934.78
2018-12-08T03:40:31.824Z,934.79
2018-12-08T03:41:32.246Z,934.82
2018-12-08T03:42:32.927Z,934.76
2018-12-08T03:43:33.446Z,934.7
2018-12-08T03:44:33.854Z,934.73
2018-12-08T03:45:34.542Z,934.83
2018-12-08T03:46:35.227Z,934.68
2018-12-08T03:47:36.187Z,934.74
2018-12-08T03:48:36.878Z,934.83
2018-12-08T03:49:37.395Z,934.9
2018-12-08T03:50:38.372Z,934.74
2018-12-08T03:51:38.890Z,935
2018-12-08T03:52:39.297Z,934.81
2018-12-08T03:53:39.996Z,934.83
2018-12-08T03:54:40.849Z,934.81
2018-12-08T03:55:41.378Z,934.76
2018-12-08T03:56:41.956Z,934.9
2018-12-08T03:57:42.920Z,934.79
2018-12-08T03:58:43.616Z,934.67
2018-12-08T03:59:44.303Z,934.74
2018-12-08T04:00:45.279Z,934.79
2018-12-08T04:01:46.054Z,934.72
2018-12-08T04:02:46.724Z,934.78
2018-12-08T04:03:47.692Z,934.78
2018-12-08T04:04:47.934Z,934.7
2018-12-08T04:05:48.740Z,934.79
2018-12-08T04:06:49.113Z,934.78
2018-12-08T04:07:49.487Z,934.76
2018-12-08T04:08:50.454Z,934.79
2018-12-08T04:09:50.866Z,934.85
2018-12-08T04:10:51.828Z,934.82
2018-12-08T04:11:52.086Z,934.85
2018-12-08T04:12:52.477Z,934.85
2018-12-08T04:13:53.183Z,934.9
2018-12-08T04:14:53.868Z,934.87
2018-12-08T04:15:54.574Z,934.86
2018-12-08T04:16:55.540Z,934.91
2018-12-08T04:17:56.059Z,934.93
2018-12-08T04:18:56.746Z,934.92
2018-12-08T04:19:57.155Z,934.93
2018-12-08T04:20:57.395Z,934.96
2018-12-08T04:21:58.542Z,935.02
2018-12-08T04:22:59.665Z,934.99
2018-12-08T04:24:00.458Z,935.08
2018-12-08T04:25:01.144Z,935.04
2018-12-08T04:26:01.859Z,935.01
2018-12-08T04:27:02.551Z,935.07
2018-12-08T04:28:03.516Z,935.03
2018-12-08T04:29:03.757Z,935.09
2018-12-08T04:30:04.746Z,935.07
2018-12-08T04:31:05.271Z,935.07
2018-12-08T04:32:06.521Z,935.08
2018-12-08T04:33:07.465Z,935.06
2018-12-08T04:34:08.161Z,935.05
2018-12-08T04:35:08.845Z,935
2018-12-08T04:36:09.535Z,935.04
2018-12-08T04:37:09.945Z,935.07
2018-12-08T04:38:10.200Z,935.07
2018-12-08T04:39:10.887Z,935.02
2018-12-08T04:40:12.021Z,935.11
2018-12-08T04:41:13.454Z,935.08
2018-12-08T04:42:14.419Z,935.14
2018-12-08T04:43:15.188Z,935.13
2018-12-08T04:44:15.623Z,935.14
2018-12-08T04:45:15.872Z,935.18
2018-12-08T04:46:16.288Z,935.13
2018-12-08T04:47:17.618Z,935.17
2018-12-08T04:48:18.939Z,935.05
2018-12-08T04:49:19.929Z,935.12
2018-12-08T04:50:20.621Z,935.06
2018-12-08T04:51:21.864Z,935.07
2018-12-08T04:52:22.550Z,935.11
2018-12-08T04:53:23.383Z,935.03
2018-12-08T04:54:24.724Z,934.98
2018-12-08T04:55:25.416Z,935.06
2018-12-08T04:56:25.830Z,935.09
2018-12-08T04:57:26.255Z,935.09
2018-12-08T04:58:26.953Z,935.05
2018-12-08T04:59:27.361Z,935.04
2018-12-08T05:00:27.880Z,935.06
2018-12-08T05:01:28.409Z,935.01
2018-12-08T05:02:29.211Z,934.95
2018-12-08T05:03:30.311Z,935.05
2018-12-08T05:04:30.762Z,935.05
2018-12-08T05:05:31.179Z,935.11
2018-12-08T05:06:31.580Z,935.05
2018-12-08T05:07:32.266Z,935.04
2018-12-08T05:08:32.680Z,935.05
2018-12-08T05:09:33.087Z,935.05
2018-12-08T05:10:34.213Z,935.1
2018-12-08T05:11:34.625Z,935.08
2018-12-08T05:12:35.592Z,935.09
2018-12-08T05:13:36.717Z,935.08
2018-12-08T05:14:37.844Z,935.11
2018-12-08T05:15:38.528Z,934.99
2018-12-08T05:16:39.243Z,935.03
2018-12-08T05:17:40.656Z,934.99
2018-12-08T05:18:40.900Z,935.01
2018-12-08T05:19:41.590Z,935.05
2018-12-08T05:20:42.718Z,935.05
2018-12-08T05:21:43.498Z,935.05
2018-12-08T05:22:44.465Z,935.1
2018-12-08T05:23:45.388Z,935.09
2018-12-08T05:24:46.074Z,935.05
2018-12-08T05:25:46.764Z,935.03
2018-12-08T05:26:47.894Z,934.94
2018-12-08T05:27:48.576Z,934.96
2018-12-08T05:28:49.355Z,934.89
2018-12-08T05:29:50.764Z,934.9
2018-12-08T05:30:50.988Z,934.99
2018-12-08T05:31:51.163Z,934.99
2018-12-08T05:32:51.570Z,934.98
2018-12-08T05:33:52.214Z,934.97
2018-12-08T05:34:52.899Z,935.01
2018-12-08T05:35:53.142Z,934.91
2018-12-08T05:36:54.494Z,934.98
2018-12-08T05:37:55.033Z,935.03
2018-12-08T05:38:55.443Z,935.04
2018-12-08T05:39:56.405Z,935.08
2018-12-08T05:40:57.092Z,935.16
2018-12-08T05:41:58.497Z,935.15
2018-12-08T05:42:58.908Z,935.11
2018-12-08T05:43:59.723Z,935.09
2018-12-08T05:45:00.139Z,935.15
2018-12-08T05:46:00.657Z,935.1
2018-12-08T05:47:01.111Z,935.2
2018-12-08T05:48:02.519Z,935.22
2018-12-08T05:49:02.987Z,935.18
2018-12-08T05:50:04.117Z,935.23
2018-12-08T05:51:04.335Z,935.24
2018-12-08T05:52:04.525Z,935.22
2018-12-08T05:53:04.940Z,935.25
2018-12-08T05:54:05.771Z,935.19
2018-12-08T05:55:06.741Z,935.3
2018-12-08T05:56:07.244Z,935.25
2018-12-08T05:57:07.650Z,935.27
2018-12-08T05:58:08.781Z,935.21
2018-12-08T05:59:09.820Z,935.2
2018-12-08T06:00:10.946Z,935.25
2018-12-08T06:01:11.360Z,935.21
2018-12-08T06:02:12.324Z,935.23
2018-12-08T06:03:13.013Z,935.22
2018-12-08T06:04:14.417Z,935.25
2018-12-08T06:05:15.381Z,935.22
2018-12-08T06:06:15.625Z,935.2
2018-12-08T06:07:15.871Z,935.15
2018-12-08T06:08:16.275Z,935.11
2018-12-08T06:09:16.964Z,935.12
2018-12-08T06:10:17.653Z,935.09
2018-12-08T06:11:18.060Z,935.12
2018-12-08T06:12:19.191Z,935.19
2018-12-08T06:13:20.322Z,935.13
2018-12-08T06:14:20.691Z,935.2
2018-12-08T06:15:21.378Z,935.28
2018-12-08T06:16:21.787Z,935.22
2018-12-08T06:17:22.472Z,935.24
2018-12-08T06:18:22.689Z,935.21
2018-12-08T06:19:24.154Z,935.23
2018-12-08T06:20:24.835Z,935.28
2018-12-08T06:21:25.528Z,935.28
2018-12-08T06:22:25.934Z,935.27
2018-12-08T06:23:26.621Z,935.23
2018-12-08T06:24:27.442Z,935.21
2018-12-08T06:25:27.846Z,935.18
2018-12-08T06:26:28.817Z,935.2
2018-12-08T06:27:29.225Z,935.17
2018-12-08T06:28:29.630Z,935.19
2018-12-08T06:29:30.316Z,935.21
2018-12-08T06:30:30.843Z,935.14
2018-12-08T06:31:31.249Z,935.13
2018-12-08T06:32:32.308Z,935.11
2018-12-08T06:33:33.274Z,935.08
2018-12-08T06:34:33.746Z,935.11
2018-12-08T06:35:33.986Z,935.19
2018-12-08T06:36:35.118Z,935.13
2018-12-08T06:37:35.828Z,935.17
2018-12-08T06:38:36.801Z,935.14
2018-12-08T06:39:37.211Z,935.14
2018-12-08T06:40:37.617Z,935.13
2018-12-08T06:41:38.027Z,935.15
2018-12-08T06:42:38.714Z,935.11
2018-12-08T06:43:39.398Z,935.14
2018-12-08T06:44:40.523Z,935.13
2018-12-08T06:45:41.213Z,935.16
2018-12-08T06:46:41.625Z,935.16
2018-12-08T06:47:42.034Z,935.19
2018-12-08T06:48:42.721Z,935.17
2018-12-08T06:49:43.413Z,935.19
2018-12-08T06:50:44.105Z,935.21
2018-12-08T06:51:45.244Z,935.2
2018-12-08T06:52:45.936Z,935.22
2018-12-08T06:53:47.071Z,935.21
2018-12-08T06:54:48.237Z,935.21
2018-12-08T06:55:48.928Z,935.18
2018-12-08T06:56:49.705Z,935.18
2018-12-08T06:57:50.498Z,935.14
2018-12-08T06:58:51.750Z,935.12
2018-12-08T06:59:52.429Z,935.11
2018-12-08T07:00:53.124Z,935.17
2018-12-08T07:01:54.255Z,935.12
2018-12-08T07:02:55.388Z,935.07
2018-12-08T07:03:55.884Z,935.1
2018-12-08T07:04:56.427Z,935.11
2018-12-08T07:05:56.837Z,935.11
2018-12-08T07:06:57.529Z,935.08
2018-12-08T07:07:58.293Z,935.11
2018-12-08T07:08:58.985Z,935.04
2018-12-08T07:09:59.678Z,935.04
2018-12-08T07:11:00.369Z,934.95
2018-12-08T07:12:01.055Z,935.03
2018-12-08T07:13:01.516Z,935.06
2018-12-08T07:14:02.208Z,935.03
2018-12-08T07:15:02.692Z,935
2018-12-08T07:16:03.107Z,935.02
2018-12-08T07:17:04.243Z,935.1
2018-12-08T07:18:05.492Z,935.07
2018-12-08T07:19:06.186Z,935.02
2018-12-08T07:20:07.317Z,935.03
2018-12-08T07:21:08.003Z,935.1
2018-12-08T07:22:08.415Z,935.08
2018-12-08T07:23:09.553Z,935.15
2018-12-08T07:24:10.243Z,935.16
2018-12-08T07:25:11.084Z,935.16
2018-12-08T07:26:11.497Z,935.16
2018-12-08T07:27:11.909Z,935.16
2018-12-08T07:28:12.696Z,935.19
2018-12-08T07:29:13.112Z,935.22
2018-12-08T07:30:13.897Z,935.17
2018-12-08T07:31:14.312Z,935.18
2018-12-08T07:32:15.562Z,935.22
2018-12-08T07:33:16.808Z,935.2
2018-12-08T07:34:17.218Z,935.26
2018-12-08T07:35:18.051Z,935.26
2018-12-08T07:36:18.763Z,935.28
2018-12-08T07:37:19.453Z,935.31
2018-12-08T07:38:20.589Z,935.41
2018-12-08T07:39:21.725Z,935.46
2018-12-08T07:40:22.697Z,935.46
2018-12-08T07:41:23.112Z,935.63
2018-12-08T07:42:23.528Z,935.66
2018-12-08T07:43:23.943Z,935.6
2018-12-08T07:44:24.373Z,935.68
2018-12-08T07:45:25.492Z,935.68
2018-12-08T07:46:26.191Z,935.72
2018-12-08T07:47:26.609Z,935.62
2018-12-08T07:48:27.749Z,935.71
2018-12-08T07:49:28.441Z,935.76
2018-12-08T07:50:28.856Z,935.67
2018-12-08T07:51:29.847Z,935.68
2018-12-08T07:52:30.984Z,935.61
2018-12-08T07:53:31.215Z,935.61
2018-12-08T07:54:31.996Z,935.63
2018-12-08T07:55:32.843Z,935.71
2018-12-08T07:56:33.538Z,935.6
2018-12-08T07:57:33.958Z,935.64
2018-12-08T07:58:34.210Z,935.67
2018-12-08T07:59:35.349Z,935.75
2018-12-08T08:00:36.044Z,935.57
2018-12-08T08:01:36.740Z,935.71
2018-12-08T08:02:37.713Z,935.62
2018-12-08T08:03:38.498Z,935.55
2018-12-08T08:04:38.911Z,935.59
2018-12-08T08:05:39.743Z,935.66
2018-12-08T08:06:40.527Z,935.66
2018-12-08T08:07:41.943Z,935.64
2018-12-08T08:08:43.081Z,935.61
2018-12-08T08:09:43.781Z,935.54
2018-12-08T08:10:44.478Z,935.51
2018-12-08T08:11:45.170Z,935.62
2018-12-08T08:12:45.623Z,935.61
2018-12-08T08:13:46.757Z,935.56
2018-12-08T08:14:47.920Z,935.58
2018-12-08T08:15:49.185Z,935.56
2018-12-08T08:16:49.879Z,935.49
2018-12-08T08:17:50.061Z,935.5
2018-12-08T08:18:50.282Z,935.56
2018-12-08T08:19:50.970Z,935.49
2018-12-08T08:20:51.941Z,935.49
2018-12-08T08:21:53.021Z,935.47
2018-12-08T08:22:53.995Z,935.54
2018-12-08T08:23:54.968Z,935.46
2018-12-08T08:24:55.940Z,935.55
2018-12-08T08:25:56.759Z,935.41
2018-12-08T08:26:57.172Z,935.4
2018-12-08T08:27:57.589Z,935.52
2018-12-08T08:28:58.282Z,935.51
2018-12-08T08:29:58.698Z,935.48
2018-12-08T08:31:00.115Z,935.54
2018-12-08T08:32:00.532Z,935.69
2018-12-08T08:33:00.946Z,935.47
2018-12-08T08:34:01.738Z,935.56
2018-12-08T08:35:02.426Z,935.62
2018-12-08T08:36:03.374Z,935.58
2018-12-08T08:37:04.348Z,935.58
2018-12-08T08:38:04.765Z,935.61
2018-12-08T08:39:05.459Z,935.59
2018-12-08T08:40:06.155Z,935.6
2018-12-08T08:41:06.916Z,935.63
2018-12-08T08:42:07.657Z,935.68
2018-12-08T08:43:08.350Z,935.67
2018-12-08T08:44:08.765Z,935.58
2018-12-08T08:45:09.184Z,935.63
2018-12-08T08:46:09.737Z,935.62
2018-12-08T08:47:10.433Z,935.55
2018-12-08T08:48:11.447Z,935.68
2018-12-08T08:49:12.581Z,935.57
2018-12-08T08:50:13.278Z,935.55
2018-12-08T08:51:13.697Z,935.56
2018-12-08T08:52:14.132Z,935.51
2018-12-08T08:53:14.828Z,935.5
2018-12-08T08:54:15.623Z,935.55
2018-12-08T08:55:16.038Z,935.49
2018-12-08T08:56:16.884Z,935.44
2018-12-08T08:57:17.301Z,935.62
2018-12-08T08:58:18.439Z,935.43
2018-12-08T08:59:21.796Z,935.41
2018-12-08T08:59:32.103Z,935.39
2018-12-08T08:59:44.485Z,935.4
2018-12-08T08:59:56.656Z,935.43
2018-12-08T09:00:08.669Z,935.48
2018-12-08T09:01:08.716Z,935.53
2018-12-08T09:02:09.425Z,935.54
2018-12-08T09:03:11.705Z,935.45
2018-12-08T09:04:12.073Z,935.47
2018-12-08T09:05:14.027Z,935.39
2018-12-08T09:06:14.635Z,935.34
2018-12-08T09:07:15.869Z,935.42
2018-12-08T09:08:16.584Z,935.5
2018-12-08T09:09:17.128Z,935.58
2018-12-08T09:10:17.542Z,935.35
2018-12-08T09:11:18.372Z,935.55
2018-12-08T09:12:18.600Z,935.55
2018-12-08T09:13:19.016Z,935.39
2018-12-08T09:14:19.435Z,935.65
2018-12-08T09:15:19.850Z,935.54
2018-12-08T09:16:21.109Z,935.52
2018-12-08T09:17:21.799Z,935.5
2018-12-08T09:18:22.217Z,935.57
2018-12-08T09:19:23.358Z,935.47
2018-12-08T09:20:23.589Z,935.44
2018-12-08T09:21:24.408Z,935.3
2018-12-08T09:22:25.546Z,935.43
2018-12-08T09:23:26.685Z,935.33
2018-12-08T09:24:27.388Z,935.41
2018-12-08T09:25:27.806Z,935.45
2018-12-08T09:26:28.273Z,935.34
2018-12-08T09:27:28.692Z,935.36
2018-12-08T09:28:30.583Z,935.39
2018-12-08T09:29:31.200Z,935.37
2018-12-08T09:30:31.893Z,935.4
2018-12-08T09:31:32.990Z,935.45
2018-12-08T09:32:33.684Z,935.41
2018-12-08T09:33:34.104Z,935.41
2018-12-08T09:34:34.519Z,935.41
2018-12-08T09:35:35.213Z,935.34
2018-12-08T09:36:35.468Z,935.38
2018-12-08T09:37:36.442Z,935.44
2018-12-08T09:38:37.170Z,935.54
2018-12-08T09:39:37.700Z,935.51
2018-12-08T09:40:38.406Z,935.51
2018-12-08T09:41:39.527Z,935.5
2018-12-08T09:42:41.799Z,935.43
2018-12-08T09:42:53.372Z,935.38
2018-12-08T09:43:53.902Z,935.32
2018-12-08T09:44:54.433Z,935.33
2018-12-08T09:45:55.574Z,935.34
2018-12-08T09:46:56.551Z,935.26
2018-12-08T09:47:57.701Z,935.35
2018-12-08T09:48:58.117Z,935.4
2018-12-08T09:49:58.540Z,935.41
2018-12-08T09:50:59.680Z,935.41
2018-12-08T09:51:59.934Z,935.4
2018-12-08T09:53:00.633Z,935.21
2018-12-08T09:54:01.742Z,935.26
2018-12-08T09:55:02.179Z,935.33
2018-12-08T09:56:03.158Z,935.46
2018-12-08T09:57:03.858Z,935.17
2018-12-08T09:58:04.999Z,935.13
2018-12-08T09:59:05.419Z,935.16
2018-12-08T10:00:06.185Z,935.17
2018-12-08T10:01:07.326Z,935.19
2018-12-08T10:02:07.745Z,935.18
2018-12-08T10:03:08.443Z,935.03
2018-12-08T10:04:08.828Z,935.03
2018-12-08T10:05:09.519Z,935.01
2018-12-08T10:06:10.657Z,934.99
2018-12-08T10:07:12.068Z,934.94
2018-12-08T10:08:12.490Z,934.83
2018-12-08T10:09:13.272Z,934.87
2018-12-08T10:10:13.969Z,934.9
2018-12-08T10:11:14.665Z,934.91
2018-12-08T10:12:15.808Z,934.9
2018-12-08T10:13:16.498Z,934.98
2018-12-08T10:14:17.169Z,934.99
2018-12-08T10:15:17.871Z,934.91
2018-12-08T10:16:18.283Z,934.94
2018-12-08T10:17:19.427Z,934.96
2018-12-08T10:18:20.228Z,934.94
2018-12-08T10:19:20.864Z,934.92
2018-12-08T10:20:21.288Z,934.9
2018-12-08T10:21:21.706Z,934.91
2018-12-08T10:22:22.293Z,934.85
2018-12-08T10:23:22.721Z,934.87
2018-12-08T10:24:23.317Z,934.9
2018-12-08T10:25:24.456Z,934.88
2018-12-08T10:26:24.983Z,934.86
2018-12-08T10:27:25.681Z,934.86
2018-12-08T10:28:27.237Z,934.87
2018-12-08T10:29:27.598Z,934.87
2018-12-08T10:30:28.011Z,934.84
2018-12-08T10:31:28.987Z,934.84
2018-12-08T10:32:29.681Z,934.89
2018-12-08T10:33:30.658Z,934.92
2018-12-08T10:34:31.202Z,934.92
2018-12-08T10:35:31.626Z,934.96
2018-12-08T10:36:32.100Z,934.97
2018-12-08T10:37:33.076Z,934.89
2018-12-08T10:38:33.496Z,934.83
2018-12-08T10:39:33.913Z,934.78
2018-12-08T10:40:35.051Z,934.78
2018-12-08T10:41:35.466Z,934.68
2018-12-08T10:42:35.879Z,934.79
2018-12-08T10:43:36.366Z,934.77
2018-12-08T10:44:36.927Z,934.74
2018-12-08T10:45:38.919Z,934.77
2018-12-08T10:45:49.910Z,934.72
2018-12-08T10:46:49.913Z,934.76
2018-12-08T10:47:50.606Z,934.72
2018-12-08T10:48:51.367Z,934.69
2018-12-08T10:49:52.341Z,934.57
2018-12-08T10:50:52.763Z,934.63
2018-12-08T10:51:53.179Z,934.64
2018-12-08T10:52:53.694Z,934.56
2018-12-08T10:53:54.386Z,934.57
2018-12-08T10:54:54.801Z,934.62
2018-12-08T10:55:55.773Z,934.52
2018-12-08T10:56:56.889Z,934.52
2018-12-08T10:57:59.670Z,934.61
2018-12-08T10:58:10.455Z,934.58
2018-12-08T10:59:12.511Z,934.63
2018-12-08T10:59:23.737Z,934.61
2018-12-08T10:59:35.954Z,934.6
2018-12-08T10:59:47.529Z,934.58
2018-12-08T11:00:47.806Z,934.57
2018-12-08T11:01:48.480Z,934.58
2018-12-08T11:02:50.334Z,934.69
2018-12-08T11:03:01.710Z,934.67
2018-12-08T11:03:13.431Z,934.66
2018-12-08T11:03:25.443Z,934.68
2018-12-08T11:03:37.654Z,934.63
2018-12-08T11:03:49.479Z,934.68
2018-12-08T11:04:01.474Z,934.64
2018-12-08T11:04:13.759Z,934.61
2018-12-08T11:04:26.090Z,934.68
2018-12-08T11:05:26.352Z,934.63
2018-12-08T11:06:27.492Z,934.56
2018-12-08T11:07:28.502Z,934.62
2018-12-08T11:08:28.924Z,934.68
2018-12-08T11:09:29.354Z,934.72
2018-12-08T11:10:30.770Z,934.67
2018-12-08T11:11:31.466Z,934.63
2018-12-08T11:12:31.886Z,934.62
2018-12-08T11:13:32.582Z,934.61
2018-12-08T11:14:33.040Z,934.71
2018-12-08T11:15:34.204Z,934.72
2018-12-08T11:16:35.457Z,934.52
2018-12-08T11:17:35.876Z,934.65
2018-12-08T11:18:36.653Z,934.64
2018-12-08T11:19:38.965Z,934.6
2018-12-08T11:20:39.077Z,934.66
2018-12-08T11:21:39.590Z,934.54
2018-12-08T11:22:40.730Z,934.62
2018-12-08T11:23:41.153Z,934.61
2018-12-08T11:24:42.296Z,934.56
2018-12-08T11:25:42.689Z,934.55
2018-12-08T11:26:43.667Z,934.49
2018-12-08T11:27:44.362Z,934.56
2018-12-08T11:28:46.435Z,934.53
2018-12-08T11:28:58.008Z,934.6
2018-12-08T11:29:58.354Z,934.57
2018-12-08T11:30:59.061Z,934.6
2018-12-08T11:31:59.759Z,934.51
2018-12-08T11:33:00.736Z,934.59
2018-12-08T11:34:01.435Z,934.57
2018-12-08T11:35:02.579Z,934.5
2018-12-08T11:36:04.623Z,934.4
2018-12-08T11:36:15.067Z,934.47
2018-12-08T11:37:17.710Z,934.56
2018-12-08T11:37:28.154Z,934.5
2018-12-08T11:38:30.139Z,934.54
2018-12-08T11:38:41.714Z,934.57
2018-12-08T11:38:54.080Z,934.55
2018-12-08T11:39:06.490Z,934.62
2018-12-08T11:40:07.260Z,934.59
2018-12-08T11:41:07.839Z,934.62
2018-12-08T11:42:08.257Z,934.57
2018-12-08T11:43:08.956Z,934.64
2018-12-08T11:44:10.221Z,934.63
2018-12-08T11:44:21.516Z,934.61
2018-12-08T11:45:21.938Z,934.49
2018-12-08T11:46:24.528Z,934.58
2018-12-08T11:47:24.261Z,934.52
2018-12-08T11:48:24.964Z,934.48
2018-12-08T11:49:25.212Z,934.41
2018-12-08T11:50:28.040Z,934.51
2018-12-08T11:50:39.040Z,934.5
2018-12-08T11:50:51.750Z,934.48
2018-12-08T11:51:03.575Z,934.42
2018-12-08T11:51:15.861Z,934.54
2018-12-08T11:52:16.887Z,934.45
2018-12-08T11:53:16.727Z,934.31
2018-12-08T11:54:17.144Z,934.35
2018-12-08T11:55:18.290Z,934.26
2018-12-08T11:56:19.061Z,934.28
2018-12-08T11:57:20.041Z,934.34
2018-12-08T11:58:21.583Z,934.4
2018-12-08T11:58:33.931Z,934.39
2018-12-08T11:58:45.935Z,934.38
2018-12-08T11:59:45.674Z,934.27
2018-12-08T12:00:46.094Z,934.3
2018-12-08T12:01:46.800Z,934.23
2018-12-08T12:02:47.777Z,934.08
2018-12-08T12:03:48.478Z,934.19
2018-12-08T12:04:49.503Z,934.14
2018-12-08T12:05:50.760Z,934.06
2018-12-08T12:06:51.728Z,934.04
2018-12-08T12:07:52.146Z,934.22
2018-12-08T12:08:53.119Z,934.11
2018-12-08T12:09:54.247Z,933.98
2018-12-08T12:10:54.944Z,934.02
2018-12-08T12:11:55.920Z,934.15
2018-12-08T12:12:56.625Z,934.14
2018-12-08T12:13:57.323Z,934.08
2018-12-08T12:14:57.743Z,934.14
2018-12-08T12:15:58.718Z,934.09